sensor_id;sensor_type;location;lat;lon;timestamp;P1;durP1;ratioP1;P2;durP2;ratioP2
37349;SDS011;23231;52.358;4.926;2023-03-01T00:02:58;25.43;;;13.73;;
37349;SDS011;23231;52.358;4.926;2023-03-01T00:07:58;25.73;;;13.13;;
37349;SDS011;23231;52.358;4.926;2023-03-01T00:12:59;27.83;;;13.73;;
37349;SDS011;23231;52.358;4.926;2023-03-01T00:17:59;26.87;;;14.10;;
37349;SDS011;23231;52.358;4.926;2023-03-01T00:23:00;25.83;;;13.80;;
37349;SDS011;23231;52.358;4.926;2023-03-01T00:28:00;29.07;;;15.37;;
37349;SDS011;23231;52.358;4.926;2023-03-01T00:33:01;27.97;;;14.33;;
37349;SDS011;23231;52.358;4.926;2023-03-01T00:38:01;25.87;;;13.77;;
37349;SDS011;23231;52.358;4.926;2023-03-01T00:43:02;28.80;;;14.30;;
37349;SDS011;23231;52.358;4.926;2023-03-01T00:48:03;27.50;;;14.50;;
37349;SDS011;23231;52.358;4.926;2023-03-01T00:53:05;27.07;;;14.50;;
37349;SDS011;23231;52.358;4.926;2023-03-01T00:58:05;31.83;;;15.13;;
37349;SDS011;23231;52.358;4.926;2023-03-01T01:03:05;31.90;;;14.37;;
37349;SDS011;23231;52.358;4.926;2023-03-01T01:08:06;28.73;;;14.53;;
37349;SDS011;23231;52.358;4.926;2023-03-01T01:13:07;27.57;;;14.57;;
37349;SDS011;23231;52.358;4.926;2023-03-01T01:18:07;29.00;;;15.43;;
37349;SDS011;23231;52.358;4.926;2023-03-01T01:23:07;30.10;;;15.43;;
37349;SDS011;23231;52.358;4.926;2023-03-01T01:28:08;32.43;;;16.60;;
37349;SDS011;23231;52.358;4.926;2023-03-01T01:33:08;33.37;;;16.30;;
37349;SDS011;23231;52.358;4.926;2023-03-01T01:38:08;32.13;;;16.30;;
37349;SDS011;23231;52.358;4.926;2023-03-01T01:43:14;39.87;;;18.10;;
37349;SDS011;23231;52.358;4.926;2023-03-01T01:48:20;32.63;;;16.37;;
37349;SDS011;23231;52.358;4.926;2023-03-01T01:53:21;32.37;;;15.97;;
37349;SDS011;23231;52.358;4.926;2023-03-01T01:58:22;29.40;;;15.27;;
37349;SDS011;23231;52.358;4.926;2023-03-01T02:03:25;30.40;;;15.67;;
37349;SDS011;23231;52.358;4.926;2023-03-01T02:08:30;33.47;;;16.90;;
37349;SDS011;23231;52.358;4.926;2023-03-01T02:13:32;35.30;;;17.93;;
37349;SDS011;23231;52.358;4.926;2023-03-01T02:18:33;33.57;;;16.80;;
37349;SDS011;23231;52.358;4.926;2023-03-01T02:23:34;32.87;;;16.27;;
37349;SDS011;23231;52.358;4.926;2023-03-01T02:28:35;40.37;;;18.43;;
37349;SDS011;23231;52.358;4.926;2023-03-01T02:33:37;33.80;;;17.27;;
37349;SDS011;23231;52.358;4.926;2023-03-01T02:38:39;35.10;;;17.43;;
37349;SDS011;23231;52.358;4.926;2023-03-01T02:43:40;37.17;;;17.50;;
37349;SDS011;23231;52.358;4.926;2023-03-01T02:48:43;35.67;;;17.43;;
37349;SDS011;23231;52.358;4.926;2023-03-01T02:59:09;38.00;;;17.67;;
37349;SDS011;23231;52.358;4.926;2023-03-01T03:04:10;41.97;;;19.13;;
37349;SDS011;23231;52.358;4.926;2023-03-01T03:09:17;35.63;;;17.53;;
37349;SDS011;23231;52.358;4.926;2023-03-01T03:14:18;35.87;;;17.00;;
37349;SDS011;23231;52.358;4.926;2023-03-01T03:19:18;35.47;;;17.03;;
37349;SDS011;23231;52.358;4.926;2023-03-01T03:24:19;38.40;;;17.53;;
37349;SDS011;23231;52.358;4.926;2023-03-01T03:29:19;38.93;;;17.30;;
37349;SDS011;23231;52.358;4.926;2023-03-01T03:34:20;35.87;;;18.20;;
37349;SDS011;23231;52.358;4.926;2023-03-01T03:39:20;41.00;;;18.77;;
37349;SDS011;23231;52.358;4.926;2023-03-01T03:44:20;40.77;;;19.87;;
37349;SDS011;23231;52.358;4.926;2023-03-01T03:49:21;37.60;;;18.73;;
37349;SDS011;23231;52.358;4.926;2023-03-01T03:54:21;37.97;;;18.50;;
37349;SDS011;23231;52.358;4.926;2023-03-01T03:59:22;38.17;;;18.20;;
37349;SDS011;23231;52.358;4.926;2023-03-01T04:04:22;37.60;;;18.27;;
37349;SDS011;23231;52.358;4.926;2023-03-01T04:09:22;37.30;;;17.90;;
37349;SDS011;23231;52.358;4.926;2023-03-01T04:14:23;36.73;;;17.90;;
37349;SDS011;23231;52.358;4.926;2023-03-01T04:19:23;38.60;;;18.70;;
37349;SDS011;23231;52.358;4.926;2023-03-01T04:24:24;39.43;;;17.90;;
37349;SDS011;23231;52.358;4.926;2023-03-01T04:29:24;39.30;;;18.50;;
37349;SDS011;23231;52.358;4.926;2023-03-01T04:34:24;38.03;;;17.80;;
37349;SDS011;23231;52.358;4.926;2023-03-01T04:39:26;34.93;;;17.73;;
37349;SDS011;23231;52.358;4.926;2023-03-01T04:44:27;42.60;;;19.77;;
37349;SDS011;23231;52.358;4.926;2023-03-01T04:49:27;37.40;;;18.70;;
37349;SDS011;23231;52.358;4.926;2023-03-01T04:54:28;39.17;;;17.63;;
37349;SDS011;23231;52.358;4.926;2023-03-01T04:59:29;40.17;;;18.93;;
37349;SDS011;23231;52.358;4.926;2023-03-01T05:04:30;38.70;;;19.10;;
37349;SDS011;23231;52.358;4.926;2023-03-01T05:09:30;37.23;;;18.03;;
37349;SDS011;23231;52.358;4.926;2023-03-01T05:14:30;40.83;;;18.17;;
37349;SDS011;23231;52.358;4.926;2023-03-01T05:19:31;32.57;;;16.73;;
37349;SDS011;23231;52.358;4.926;2023-03-01T05:24:33;39.27;;;17.40;;
37349;SDS011;23231;52.358;4.926;2023-03-01T05:29:34;43.07;;;20.00;;
37349;SDS011;23231;52.358;4.926;2023-03-01T05:34:35;34.80;;;17.03;;
37349;SDS011;23231;52.358;4.926;2023-03-01T05:39:36;42.73;;;18.93;;
37349;SDS011;23231;52.358;4.926;2023-03-01T05:44:36;38.37;;;16.73;;
37349;SDS011;23231;52.358;4.926;2023-03-01T05:49:37;38.43;;;18.53;;
37349;SDS011;23231;52.358;4.926;2023-03-01T05:54:37;36.83;;;18.37;;
37349;SDS011;23231;52.358;4.926;2023-03-01T05:59:38;35.50;;;18.17;;
37349;SDS011;23231;52.358;4.926;2023-03-01T06:04:38;39.60;;;19.23;;
37349;SDS011;23231;52.358;4.926;2023-03-01T06:09:39;39.70;;;17.60;;
37349;SDS011;23231;52.358;4.926;2023-03-01T06:14:39;41.00;;;19.50;;
37349;SDS011;23231;52.358;4.926;2023-03-01T06:19:40;35.50;;;18.03;;
37349;SDS011;23231;52.358;4.926;2023-03-01T06:24:40;41.67;;;19.63;;
37349;SDS011;23231;52.358;4.926;2023-03-01T06:29:40;41.87;;;20.03;;
37349;SDS011;23231;52.358;4.926;2023-03-01T06:34:41;44.17;;;20.33;;
37349;SDS011;23231;52.358;4.926;2023-03-01T06:39:41;45.53;;;20.00;;
37349;SDS011;23231;52.358;4.926;2023-03-01T06:44:42;43.03;;;21.10;;
37349;SDS011;23231;52.358;4.926;2023-03-01T06:49:43;46.87;;;20.90;;
37349;SDS011;23231;52.358;4.926;2023-03-01T06:54:44;48.70;;;21.80;;
37349;SDS011;23231;52.358;4.926;2023-03-01T06:59:44;50.83;;;21.50;;
37349;SDS011;23231;52.358;4.926;2023-03-01T07:04:44;41.57;;;20.00;;
37349;SDS011;23231;52.358;4.926;2023-03-01T07:09:45;46.00;;;20.10;;
37349;SDS011;23231;52.358;4.926;2023-03-01T07:14:46;45.03;;;20.23;;
37349;SDS011;23231;52.358;4.926;2023-03-01T07:19:46;40.83;;;19.10;;
37349;SDS011;23231;52.358;4.926;2023-03-01T07:24:47;46.23;;;20.53;;
37349;SDS011;23231;52.358;4.926;2023-03-01T07:29:47;50.80;;;23.13;;
37349;SDS011;23231;52.358;4.926;2023-03-01T07:34:47;44.60;;;20.60;;
37349;SDS011;23231;52.358;4.926;2023-03-01T07:39:48;40.23;;;18.97;;
37349;SDS011;23231;52.358;4.926;2023-03-01T07:44:48;42.63;;;20.37;;
37349;SDS011;23231;52.358;4.926;2023-03-01T07:49:48;38.23;;;18.63;;
37349;SDS011;23231;52.358;4.926;2023-03-01T07:54:49;40.20;;;19.10;;
37349;SDS011;23231;52.358;4.926;2023-03-01T07:59:49;41.40;;;20.10;;
37349;SDS011;23231;52.358;4.926;2023-03-01T08:04:50;39.70;;;19.20;;
37349;SDS011;23231;52.358;4.926;2023-03-01T08:09:50;46.40;;;20.67;;
37349;SDS011;23231;52.358;4.926;2023-03-01T08:14:50;44.30;;;20.53;;
37349;SDS011;23231;52.358;4.926;2023-03-01T08:19:51;41.47;;;20.17;;
37349;SDS011;23231;52.358;4.926;2023-03-01T08:24:51;41.30;;;20.07;;
37349;SDS011;23231;52.358;4.926;2023-03-01T08:29:51;42.53;;;19.10;;
37349;SDS011;23231;52.358;4.926;2023-03-01T08:34:52;45.50;;;20.80;;
37349;SDS011;23231;52.358;4.926;2023-03-01T08:39:52;43.33;;;21.27;;
37349;SDS011;23231;52.358;4.926;2023-03-01T08:44:54;42.90;;;20.70;;
37349;SDS011;23231;52.358;4.926;2023-03-01T08:49:56;41.17;;;19.03;;
37349;SDS011;23231;52.358;4.926;2023-03-01T08:54:57;42.97;;;20.23;;
37349;SDS011;23231;52.358;4.926;2023-03-01T08:59:57;44.27;;;21.63;;
37349;SDS011;23231;52.358;4.926;2023-03-01T09:04:57;42.27;;;20.67;;
37349;SDS011;23231;52.358;4.926;2023-03-01T09:09:58;48.17;;;22.53;;
37349;SDS011;23231;52.358;4.926;2023-03-01T09:14:58;50.17;;;22.20;;
37349;SDS011;23231;52.358;4.926;2023-03-01T09:19:58;54.47;;;23.63;;
37349;SDS011;23231;52.358;4.926;2023-03-01T09:25:00;43.43;;;21.27;;
37349;SDS011;23231;52.358;4.926;2023-03-01T09:30:00;42.33;;;19.93;;
37349;SDS011;23231;52.358;4.926;2023-03-01T09:35:01;39.73;;;20.40;;
37349;SDS011;23231;52.358;4.926;2023-03-01T09:40:05;40.33;;;19.43;;
37349;SDS011;23231;52.358;4.926;2023-03-01T09:45:11;37.27;;;18.43;;
37349;SDS011;23231;52.358;4.926;2023-03-01T09:50:16;33.93;;;18.53;;
37349;SDS011;23231;52.358;4.926;2023-03-01T09:55:25;37.00;;;19.03;;
37349;SDS011;23231;52.358;4.926;2023-03-01T10:00:44;38.23;;;20.13;;
37349;SDS011;23231;52.358;4.926;2023-03-01T10:06:01;34.10;;;18.30;;
37349;SDS011;23231;52.358;4.926;2023-03-01T10:11:05;29.33;;;17.13;;
37349;SDS011;23231;52.358;4.926;2023-03-01T10:16:20;28.47;;;15.53;;
37349;SDS011;23231;52.358;4.926;2023-03-01T10:21:25;29.55;;;16.08;;
37349;SDS011;23231;52.358;4.926;2023-03-01T10:36:50;21.85;;;12.98;;
37349;SDS011;23231;52.358;4.926;2023-03-01T10:41:55;23.00;;;13.95;;
37349;SDS011;23231;52.358;4.926;2023-03-01T10:47:01;21.73;;;12.50;;
37349;SDS011;23231;52.358;4.926;2023-03-01T10:52:11;22.77;;;12.52;;
37349;SDS011;23231;52.358;4.926;2023-03-01T10:57:25;21.83;;;12.88;;
37349;SDS011;23231;52.358;4.926;2023-03-01T11:02:29;22.85;;;13.13;;
37349;SDS011;23231;52.358;4.926;2023-03-01T11:13:19;27.45;;;17.20;;
37349;SDS011;23231;52.358;4.926;2023-03-01T11:18:20;27.95;;;15.75;;
37349;SDS011;23231;52.358;4.926;2023-03-01T11:23:22;27.50;;;15.88;;
37349;SDS011;23231;52.358;4.926;2023-03-01T11:28:23;28.17;;;16.58;;
37349;SDS011;23231;52.358;4.926;2023-03-01T11:38:42;24.58;;;15.40;;
37349;SDS011;23231;52.358;4.926;2023-03-01T11:43:54;22.52;;;13.70;;
37349;SDS011;23231;52.358;4.926;2023-03-01T12:30:42;20.05;;;13.50;;
37349;SDS011;23231;52.358;4.926;2023-03-01T12:41:31;22.48;;;13.48;;
37349;SDS011;23231;52.358;4.926;2023-03-01T12:51:59;18.90;;;12.77;;
37349;SDS011;23231;52.358;4.926;2023-03-01T13:02:24;16.55;;;10.85;;
37349;SDS011;23231;52.358;4.926;2023-03-01T13:12:51;18.25;;;11.82;;
37349;SDS011;23231;52.358;4.926;2023-03-01T13:33:49;17.75;;;10.40;;
37349;SDS011;23231;52.358;4.926;2023-03-01T13:43:54;18.90;;;10.90;;
37349;SDS011;23231;52.358;4.926;2023-03-01T13:48:55;17.15;;;11.32;;
37349;SDS011;23231;52.358;4.926;2023-03-01T13:53:56;16.63;;;9.48;;
37349;SDS011;23231;52.358;4.926;2023-03-01T13:58:58;14.98;;;9.98;;
37349;SDS011;23231;52.358;4.926;2023-03-01T14:04:02;14.02;;;8.10;;
37349;SDS011;23231;52.358;4.926;2023-03-01T14:09:14;14.57;;;9.63;;
37349;SDS011;23231;52.358;4.926;2023-03-01T14:19:23;19.20;;;12.20;;
37349;SDS011;23231;52.358;4.926;2023-03-01T14:24:25;17.00;;;12.02;;
37349;SDS011;23231;52.358;4.926;2023-03-01T14:29:35;19.60;;;11.73;;
37349;SDS011;23231;52.358;4.926;2023-03-01T14:34:41;17.33;;;11.88;;
37349;SDS011;23231;52.358;4.926;2023-03-01T14:39:44;16.50;;;10.05;;
37349;SDS011;23231;52.358;4.926;2023-03-01T14:44:45;13.90;;;8.85;;
37349;SDS011;23231;52.358;4.926;2023-03-01T14:49:47;14.00;;;9.20;;
37349;SDS011;23231;52.358;4.926;2023-03-01T14:54:50;15.13;;;8.85;;
37349;SDS011;23231;52.358;4.926;2023-03-01T14:59:53;14.10;;;7.88;;
37349;SDS011;23231;52.358;4.926;2023-03-01T15:05:06;12.65;;;7.05;;
37349;SDS011;23231;52.358;4.926;2023-03-01T15:10:14;11.82;;;6.93;;
37349;SDS011;23231;52.358;4.926;2023-03-01T15:20:30;11.32;;;6.72;;
37349;SDS011;23231;52.358;4.926;2023-03-01T15:25:35;10.55;;;6.55;;
37349;SDS011;23231;52.358;4.926;2023-03-01T15:30:36;11.25;;;6.93;;
37349;SDS011;23231;52.358;4.926;2023-03-01T15:40:49;9.88;;;6.70;;
37349;SDS011;23231;52.358;4.926;2023-03-01T15:45:55;11.95;;;6.47;;
37349;SDS011;23231;52.358;4.926;2023-03-01T15:50:57;10.93;;;6.60;;
37349;SDS011;23231;52.358;4.926;2023-03-01T15:55:58;11.23;;;6.85;;
37349;SDS011;23231;52.358;4.926;2023-03-01T16:00:59;9.88;;;6.38;;
37349;SDS011;23231;52.358;4.926;2023-03-01T16:05:59;12.20;;;6.75;;
37349;SDS011;23231;52.358;4.926;2023-03-01T16:11:02;11.00;;;6.82;;
37349;SDS011;23231;52.358;4.926;2023-03-01T16:16:04;9.90;;;6.68;;
37349;SDS011;23231;52.358;4.926;2023-03-01T16:21:05;10.77;;;7.30;;
37349;SDS011;23231;52.358;4.926;2023-03-01T16:26:06;12.57;;;6.50;;
37349;SDS011;23231;52.358;4.926;2023-03-01T16:31:06;11.38;;;6.40;;
37349;SDS011;23231;52.358;4.926;2023-03-01T16:36:08;9.85;;;6.15;;
37349;SDS011;23231;52.358;4.926;2023-03-01T16:41:12;11.68;;;7.03;;
37349;SDS011;23231;52.358;4.926;2023-03-01T16:46:15;11.68;;;6.75;;
37349;SDS011;23231;52.358;4.926;2023-03-01T16:51:17;11.27;;;6.78;;
37349;SDS011;23231;52.358;4.926;2023-03-01T16:56:18;11.48;;;6.72;;
37349;SDS011;23231;52.358;4.926;2023-03-01T17:01:19;12.05;;;7.32;;
37349;SDS011;23231;52.358;4.926;2023-03-01T17:06:24;11.40;;;7.15;;
37349;SDS011;23231;52.358;4.926;2023-03-01T17:11:26;12.55;;;7.10;;
37349;SDS011;23231;52.358;4.926;2023-03-01T17:16:27;13.20;;;7.90;;
37349;SDS011;23231;52.358;4.926;2023-03-01T17:21:27;13.38;;;7.32;;
37349;SDS011;23231;52.358;4.926;2023-03-01T17:26:27;13.50;;;7.72;;
37349;SDS011;23231;52.358;4.926;2023-03-01T17:31:28;16.02;;;7.68;;
37349;SDS011;23231;52.358;4.926;2023-03-01T17:36:29;14.02;;;7.20;;
37349;SDS011;23231;52.358;4.926;2023-03-01T17:41:29;12.30;;;7.28;;
37349;SDS011;23231;52.358;4.926;2023-03-01T17:46:29;13.23;;;7.60;;
37349;SDS011;23231;52.358;4.926;2023-03-01T17:51:30;15.30;;;7.97;;
37349;SDS011;23231;52.358;4.926;2023-03-01T17:56:30;13.63;;;7.45;;
37349;SDS011;23231;52.358;4.926;2023-03-01T18:01:32;15.10;;;7.90;;
37349;SDS011;23231;52.358;4.926;2023-03-01T18:06:35;13.55;;;7.38;;
37349;SDS011;23231;52.358;4.926;2023-03-01T18:11:36;16.42;;;8.27;;
37349;SDS011;23231;52.358;4.926;2023-03-01T18:16:36;14.55;;;8.02;;
37349;SDS011;23231;52.358;4.926;2023-03-01T18:21:38;13.65;;;7.50;;
37349;SDS011;23231;52.358;4.926;2023-03-01T18:26:39;15.32;;;8.10;;
37349;SDS011;23231;52.358;4.926;2023-03-01T18:31:39;15.75;;;8.32;;
37349;SDS011;23231;52.358;4.926;2023-03-01T18:36:40;16.05;;;8.18;;
37349;SDS011;23231;52.358;4.926;2023-03-01T18:41:40;14.63;;;7.80;;
37349;SDS011;23231;52.358;4.926;2023-03-01T18:46:40;16.92;;;8.27;;
37349;SDS011;23231;52.358;4.926;2023-03-01T18:51:41;15.32;;;9.25;;
37349;SDS011;23231;52.358;4.926;2023-03-01T18:56:42;16.15;;;8.65;;
37349;SDS011;23231;52.358;4.926;2023-03-01T19:01:42;18.40;;;9.40;;
37349;SDS011;23231;52.358;4.926;2023-03-01T19:06:43;20.65;;;10.00;;
37349;SDS011;23231;52.358;4.926;2023-03-01T19:11:43;19.98;;;10.13;;
37349;SDS011;23231;52.358;4.926;2023-03-01T19:16:44;21.85;;;10.63;;
37349;SDS011;23231;52.358;4.926;2023-03-01T19:21:44;17.98;;;9.93;;
37349;SDS011;23231;52.358;4.926;2023-03-01T19:26:45;17.40;;;9.38;;
37349;SDS011;23231;52.358;4.926;2023-03-01T19:31:45;19.17;;;9.93;;
37349;SDS011;23231;52.358;4.926;2023-03-01T19:36:45;19.50;;;10.13;;
37349;SDS011;23231;52.358;4.926;2023-03-01T19:41:47;21.50;;;10.18;;
37349;SDS011;23231;52.358;4.926;2023-03-01T19:46:47;22.17;;;10.27;;
37349;SDS011;23231;52.358;4.926;2023-03-01T19:51:48;17.53;;;10.07;;
37349;SDS011;23231;52.358;4.926;2023-03-01T19:56:49;19.45;;;9.98;;
37349;SDS011;23231;52.358;4.926;2023-03-01T20:01:50;21.55;;;10.82;;
37349;SDS011;23231;52.358;4.926;2023-03-01T20:06:51;19.45;;;9.88;;
37349;SDS011;23231;52.358;4.926;2023-03-01T20:11:51;23.90;;;11.10;;
37349;SDS011;23231;52.358;4.926;2023-03-01T20:16:52;20.17;;;10.93;;
37349;SDS011;23231;52.358;4.926;2023-03-01T20:21:52;20.58;;;10.73;;
37349;SDS011;23231;52.358;4.926;2023-03-01T20:26:52;23.20;;;11.83;;
37349;SDS011;23231;52.358;4.926;2023-03-01T20:31:53;21.43;;;10.43;;
37349;SDS011;23231;52.358;4.926;2023-03-01T20:36:53;20.92;;;10.70;;
37349;SDS011;23231;52.358;4.926;2023-03-01T20:41:54;22.98;;;10.45;;
37349;SDS011;23231;52.358;4.926;2023-03-01T20:46:54;23.10;;;11.80;;
37349;SDS011;23231;52.358;4.926;2023-03-01T20:51:54;22.87;;;11.27;;
37349;SDS011;23231;52.358;4.926;2023-03-01T20:56:55;22.03;;;11.40;;
37349;SDS011;23231;52.358;4.926;2023-03-01T21:01:55;22.93;;;12.03;;
37349;SDS011;23231;52.358;4.926;2023-03-01T21:06:56;24.53;;;12.50;;
37349;SDS011;23231;52.358;4.926;2023-03-01T21:11:56;23.83;;;12.27;;
37349;SDS011;23231;52.358;4.926;2023-03-01T21:16:56;26.30;;;12.30;;
37349;SDS011;23231;52.358;4.926;2023-03-01T21:21:57;26.37;;;13.10;;
37349;SDS011;23231;52.358;4.926;2023-03-01T21:26:57;23.57;;;11.87;;
37349;SDS011;23231;52.358;4.926;2023-03-01T21:31:58;27.97;;;12.53;;
37349;SDS011;23231;52.358;4.926;2023-03-01T21:36:58;25.70;;;12.83;;
37349;SDS011;23231;52.358;4.926;2023-03-01T21:42:01;28.00;;;13.87;;
37349;SDS011;23231;52.358;4.926;2023-03-01T21:47:02;28.03;;;13.93;;
37349;SDS011;23231;52.358;4.926;2023-03-01T21:52:02;28.53;;;14.30;;
37349;SDS011;23231;52.358;4.926;2023-03-01T21:57:03;30.77;;;14.07;;
37349;SDS011;23231;52.358;4.926;2023-03-01T22:02:04;30.53;;;14.77;;
37349;SDS011;23231;52.358;4.926;2023-03-01T22:07:04;29.93;;;15.27;;
37349;SDS011;23231;52.358;4.926;2023-03-01T22:12:05;31.83;;;15.00;;
37349;SDS011;23231;52.358;4.926;2023-03-01T22:17:05;34.60;;;16.70;;
37349;SDS011;23231;52.358;4.926;2023-03-01T22:22:06;37.83;;;19.20;;
37349;SDS011;23231;52.358;4.926;2023-03-01T22:27:06;41.37;;;19.63;;
37349;SDS011;23231;52.358;4.926;2023-03-01T22:32:06;51.50;;;23.17;;
37349;SDS011;23231;52.358;4.926;2023-03-01T22:37:07;48.10;;;22.33;;
37349;SDS011;23231;52.358;4.926;2023-03-01T22:42:07;50.60;;;24.07;;
37349;SDS011;23231;52.358;4.926;2023-03-01T22:47:08;45.43;;;21.37;;
37349;SDS011;23231;52.358;4.926;2023-03-01T22:52:09;52.33;;;24.37;;
37349;SDS011;23231;52.358;4.926;2023-03-01T22:57:10;47.47;;;21.73;;
37349;SDS011;23231;52.358;4.926;2023-03-01T23:02:10;50.43;;;23.67;;
37349;SDS011;23231;52.358;4.926;2023-03-01T23:07:10;49.50;;;23.47;;
37349;SDS011;23231;52.358;4.926;2023-03-01T23:12:11;50.23;;;23.87;;
37349;SDS011;23231;52.358;4.926;2023-03-01T23:17:11;55.20;;;25.10;;
37349;SDS011;23231;52.358;4.926;2023-03-01T23:22:13;52.00;;;24.13;;
37349;SDS011;23231;52.358;4.926;2023-03-01T23:27:14;52.07;;;24.27;;
37349;SDS011;23231;52.358;4.926;2023-03-01T23:32:18;53.27;;;25.73;;
37349;SDS011;23231;52.358;4.926;2023-03-01T23:37:18;55.13;;;23.80;;
37349;SDS011;23231;52.358;4.926;2023-03-01T23:42:18;50.17;;;23.20;;
37349;SDS011;23231;52.358;4.926;2023-03-01T23:47:19;56.60;;;25.13;;
37349;SDS011;23231;52.358;4.926;2023-03-01T23:52:19;55.63;;;24.33;;
37349;SDS011;23231;52.358;4.926;2023-03-01T23:57:19;59.20;;;26.37;;
